Time;durP1;ratioP1;P1;durP2;ratioP2;P2;SDS_P1;SDS_P2;PMS_P1;PMS_P2;Temp;Humidity;BMP_temperature;BMP_pressure;BME280_temperature;BME280_humidity;BME280_pressure;Samples;Min_cycle;Max_cycle;Signal;HPM_P1;HPM_P2
2021/01/16 00:01:07;;;;;;;18.23;7.70;;;;;;;-12.45;79.56;100457.97;1749798;82;21486;-32
2021/01/16 00:03:35;;;;;;;21.70;9.43;;;;;;;-12.48;79.25;100462.38;1749797;82;20931;-32
2021/01/16 00:06:04;;;;;;;29.02;8.63;;;;;;;-12.51;79.28;100458.77;1750002;82;20916;-32
2021/01/16 00:08:32;;;;;;;25.92;9.45;;;;;;;-12.57;79.18;100456.69;1750109;82;21446;-32
2021/01/16 00:11:01;;;;;;;50.85;11.03;;;;;;;-12.59;79.30;100454.45;1749817;82;22565;-33
2021/01/16 00:13:36;;;;;;;49.03;9.18;;;;;;;-12.63;79.50;100455.88;1749894;82;21002;-33
2021/01/16 00:16:06;;;;;;;36.20;9.95;;;;;;;-12.65;79.74;100454.01;1749942;82;21003;-33
2021/01/16 00:18:34;;;;;;;44.77;9.18;;;;;;;-12.66;79.98;100444.79;1749961;82;21007;-32
2021/01/16 00:21:04;;;;;;;18.73;7.22;;;;;;;-12.69;80.19;100446.66;1746462;82;20915;-31
2021/01/16 00:23:32;;;;;;;42.88;9.55;;;;;;;-12.69;80.46;100439.58;1746437;82;21269;-32
2021/01/16 00:26:00;;;;;;;12.80;6.83;;;;;;;-12.68;80.66;100443.41;1746462;81;21031;-33
2021/01/16 00:28:31;;;;;;;30.40;9.63;;;;;;;-12.73;80.74;100446.83;1746597;82;20984;-32
2021/01/16 00:31:00;;;;;;;23.85;9.30;;;;;;;-12.75;80.91;100446.21;1746327;82;21149;-31
2021/01/16 00:33:33;;;;;;;94.75;11.12;;;;;;;-12.69;81.16;100448.30;1746540;82;21031;-33
2021/01/16 00:36:03;;;;;;;18.57;7.03;;;;;;;-12.65;81.35;100445.28;1746575;82;22250;-33
2021/01/16 00:38:33;;;;;;;28.75;7.60;;;;;;;-12.66;81.47;100451.88;1746458;82;20991;-32
2021/01/16 00:41:01;;;;;;;21.70;7.37;;;;;;;-12.66;81.58;100456.02;1719541;82;21467;-33
2021/01/16 00:43:29;;;;;;;25.35;7.55;;;;;;;-12.67;81.62;100451.38;1746411;82;21023;-32
2021/01/16 00:45:57;;;;;;;30.08;7.87;;;;;;;-12.68;81.59;100442.16;1746578;82;20900;-32
2021/01/16 00:48:25;;;;;;;42.40;8.20;;;;;;;-12.66;81.55;100449.77;1746477;82;21443;-32
2021/01/16 00:50:55;;;;;;;22.22;8.33;;;;;;;-12.66;81.49;100454.77;1719123;82;20947;-32
2021/01/16 00:53:28;;;;;;;36.55;8.15;;;;;;;-12.68;81.56;100467.50;1745876;82;21070;-31
2021/01/16 00:55:57;;;;;;;37.13;7.80;;;;;;;-12.68;81.64;100461.27;1746289;82;20987;-32
2021/01/16 00:58:29;;;;;;;52.78;9.65;;;;;;;-12.66;81.74;100464.34;1746472;82;20987;-32
2021/01/16 01:00:58;;;;;;;43.92;7.97;;;;;;;-12.63;81.78;100459.98;1745916;82;22825;-31
2021/01/16 01:03:28;;;;;;;15.05;7.00;;;;;;;-12.57;81.68;100462.56;1746297;82;21058;-32
2021/01/16 01:05:56;;;;;;;53.25;8.98;;;;;;;-12.57;81.61;100467.55;1746484;82;21246;-31
2021/01/16 01:08:28;;;;;;;40.58;9.28;;;;;;;-12.57;81.57;100461.31;1746434;82;20995;-33
2021/01/16 01:10:57;;;;;;;47.55;9.10;;;;;;;-12.56;81.55;100461.80;1746484;82;20968;-31
2021/01/16 01:13:25;;;;;;;36.68;9.53;;;;;;;-12.53;81.53;100469.02;1746497;82;21364;-31
2021/01/16 01:15:53;;;;;;;58.58;10.00;;;;;;;-12.49;81.55;100470.63;1746403;82;20931;-31
2021/01/16 01:18:21;;;;;;;56.23;9.48;;;;;;;-12.46;81.54;100467.10;1746403;82;21071;-32
2021/01/16 01:20:49;;;;;;;62.05;10.15;;;;;;;-12.44;81.34;100463.09;1737972;81;20979;-31
2021/01/16 01:23:17;;;;;;;142.13;15.53;;;;;;;-12.46;81.11;100463.36;1735889;82;20996;-33
2021/01/16 01:25:46;;;;;;;107.12;13.05;;;;;;;-12.47;80.94;100474.46;1735979;82;21390;-31
2021/01/16 01:28:14;;;;;;;41.15;9.65;;;;;;;-12.48;80.77;100464.88;1735841;82;20948;-32
2021/01/16 01:30:42;;;;;;;43.58;9.95;;;;;;;-12.50;80.67;100461.40;1735930;82;20940;-32
2021/01/16 01:33:15;;;;;;;85.55;11.20;;;;;;;-12.54;80.64;100461.05;1735748;82;21011;-31
2021/01/16 01:35:44;;;;;;;123.67;11.95;;;;;;;-12.53;80.70;100461.14;1700737;84;20956;-31
2021/01/16 01:38:18;;;;;;;82.85;11.03;;;;;;;-12.48;80.76;100457.39;1700705;83;21380;-31
2021/01/16 01:40:47;;;;;;;33.45;9.30;;;;;;;-12.47;80.80;100455.38;1700716;84;28964;-31
2021/01/16 01:43:15;;;;;;;125.10;12.95;;;;;;;-12.46;80.86;100460.86;1671023;84;20995;-31
2021/01/16 01:45:43;;;;;;;83.00;12.20;;;;;;;-12.44;80.91;100456.86;1695907;84;21003;-31
2021/01/16 01:48:12;;;;;;;102.50;12.35;;;;;;;-12.42;80.96;100462.83;1695824;84;20955;-32
2021/01/16 01:50:40;;;;;;;78.85;10.65;;;;;;;-12.40;81.00;100457.92;1695912;84;21216;-31
2021/01/16 01:53:08;;;;;;;77.05;10.78;;;;;;;-12.38;81.08;100459.30;1695843;84;20995;-31
2021/01/16 01:55:37;;;;;;;135.88;12.47;;;;;;;-12.36;81.12;100453.68;1644686;84;21042;-33
2021/01/16 01:58:07;;;;;;;46.35;8.35;;;;;;;-12.36;81.19;100462.78;1693328;84;21011;-32
2021/01/16 02:00:35;;;;;;;41.98;9.40;;;;;;;-12.35;81.19;100465.77;1695947;84;20943;-33
2021/01/16 02:03:03;;;;;;;60.75;10.25;;;;;;;-12.30;81.25;100468.21;1695908;84;21404;-31
2021/01/16 02:05:31;;;;;;;39.65;8.50;;;;;;;-12.31;81.32;100462.73;1695823;84;21740;-31
2021/01/16 02:08:00;;;;;;;152.72;15.00;;;;;;;-12.28;81.33;100471.33;1695912;84;20998;-32
2021/01/16 02:10:28;;;;;;;39.15;9.13;;;;;;;-12.23;81.42;100462.05;1695913;84;21035;-32
2021/01/16 02:12:57;;;;;;;33.83;8.18;;;;;;;-12.19;81.48;100472.38;1695846;84;21018;-33
2021/01/16 02:15:50;;;;;;;26.95;7.53;;;;;;;-12.20;81.55;100464.41;1644109;84;21391;-32
2021/01/16 02:18:36;;;;;;;33.48;8.58;;;;;;;-12.17;81.59;100469.62;1695834;84;21018;-33
2021/01/16 02:21:06;;;;;;;82.92;10.60;;;;;;;-12.10;81.60;100472.55;1695994;83;21423;-32
2021/01/16 02:23:50;;;;;;;114.28;11.18;;;;;;;-12.10;81.51;100473.44;1695987;84;20959;-32
2021/01/16 02:26:46;;;;;;;46.83;8.65;;;;;;;-12.07;81.39;100482.40;1695855;84;21003;-32
2021/01/16 02:29:15;;;;;;;49.50;9.13;;;;;;;-12.08;81.25;100479.41;1695868;83;21426;-33
2021/01/16 02:32:02;;;;;;;99.65;10.98;;;;;;;-12.09;81.19;100474.29;1695773;84;20968;-32
2021/01/16 02:34:34;;;;;;;51.92;8.28;;;;;;;-12.14;81.20;100478.58;1695934;84;20968;-32
2021/01/16 02:37:46;;;;;;;42.85;7.87;;;;;;;-12.09;81.32;100484.28;1695245;84;20960;-32
2021/01/16 02:40:30;;;;;;;34.03;8.78;;;;;;;-12.09;81.48;100491.77;1695807;84;20932;-32
2021/01/16 02:43:19;;;;;;;87.60;12.65;;;;;;;-12.10;81.46;100492.52;1695824;84;21215;-32
2021/01/16 02:46:26;;;;;;;127.47;12.20;;;;;;;-12.11;81.43;100494.53;1695731;84;21050;-33
2021/01/16 02:49:09;;;;;;;20.32;7.75;;;;;;;-12.13;81.46;100501.53;1695824;84;20940;-31
2021/01/16 02:52:06;;;;;;;55.58;8.23;;;;;;;-12.10;81.57;100496.27;1695832;84;21007;-31
2021/01/16 02:54:40;;;;;;;70.78;9.00;;;;;;;-12.10;81.57;100493.41;1696004;83;21117;-32
2021/01/16 02:57:09;;;;;;;40.50;6.80;;;;;;;-12.07;81.57;100496.49;1695898;84;22282;-32
2021/01/16 02:59:38;;;;;;;29.48;7.22;;;;;;;-12.08;81.61;100498.14;1695845;84;21509;-32
2021/01/16 03:02:08;;;;;;;58.92;8.15;;;;;;;-12.06;81.56;100499.11;1695866;84;21439;-32
2021/01/16 03:04:36;;;;;;;40.65;7.20;;;;;;;-12.03;81.52;100500.95;1695860;84;20996;-32
2021/01/16 03:07:07;;;;;;;34.48;7.87;;;;;;;-12.03;81.37;100504.33;1695921;84;20951;-32
2021/01/16 03:09:37;;;;;;;52.58;8.68;;;;;;;-12.05;81.01;100506.20;1695945;84;22195;-33
2021/01/16 03:12:06;;;;;;;39.10;8.18;;;;;;;-12.01;80.99;100500.67;1695778;84;20948;-32
2021/01/16 03:14:37;;;;;;;29.98;6.58;;;;;;;-11.98;80.81;100498.00;1695876;84;20952;-32
2021/01/16 03:17:12;;;;;;;147.65;13.55;;;;;;;-11.93;80.56;100494.60;1695800;84;20901;-32
2021/01/16 03:19:48;;;;;;;40.25;6.45;;;;;;;-11.93;80.54;100495.85;1695897;83;21015;-32
2021/01/16 03:22:25;;;;;;;40.73;6.83;;;;;;;-11.94;80.39;100494.11;1695646;84;21121;-32
2021/01/16 03:24:54;;;;;;;52.67;8.73;;;;;;;-11.94;80.35;100494.48;1695923;84;21471;-31
2021/01/16 03:27:25;;;;;;;18.85;6.20;;;;;;;-11.95;80.27;100498.62;1695858;84;20999;-32
2021/01/16 03:29:54;;;;;;;71.17;8.98;;;;;;;-11.96;80.18;100499.38;1695832;84;20896;-31
2021/01/16 03:32:22;;;;;;;59.23;8.80;;;;;;;-11.96;80.20;100499.38;1695808;84;21015;-33
2021/01/16 03:34:50;;;;;;;81.42;9.93;;;;;;;-11.96;80.17;100503.48;1695883;84;21274;-31
2021/01/16 03:37:19;;;;;;;145.77;12.00;;;;;;;-11.98;80.03;100497.15;1695837;84;21023;-31
2021/01/16 03:39:48;;;;;;;76.12;10.15;;;;;;;-11.96;80.12;100506.87;1695787;83;21537;-33
2021/01/16 03:42:16;;;;;;;102.12;13.15;;;;;;;-11.96;80.10;100499.38;1695930;84;20979;-31
2021/01/16 03:44:44;;;;;;;34.13;7.20;;;;;;;-11.95;80.07;100501.12;1696028;84;20928;-31
2021/01/16 03:47:12;;;;;;;107.12;11.70;;;;;;;-11.94;80.05;100505.34;1695883;83;21210;-34
2021/01/16 03:49:40;;;;;;;37.88;7.72;;;;;;;-11.93;79.99;100503.70;1696008;84;21133;-31
2021/01/16 03:52:07;;;;;;;22.40;6.28;;;;;;;-11.95;80.00;100506.47;1695985;84;21023;-32
2021/01/16 03:54:36;;;;;;;22.17;6.95;;;;;;;-11.96;79.98;100504.38;1696008;83;21112;-31
2021/01/16 03:57:06;;;;;;;47.53;8.25;;;;;;;-11.95;79.96;100504.86;1696080;84;21011;-32
2021/01/16 03:59:33;;;;;;;85.87;11.48;;;;;;;-11.92;79.97;100512.94;1695969;84;21438;-31
2021/01/16 04:02:02;;;;;;;44.45;7.60;;;;;;;-11.93;79.82;100509.95;1695899;84;21027;-32
2021/01/16 04:04:31;;;;;;;28.05;7.25;;;;;;;-11.94;79.81;100506.59;1695998;84;21011;-33
2021/01/16 04:06:59;;;;;;;42.95;8.45;;;;;;;-11.92;79.74;100513.82;1695961;84;21054;-32
2021/01/16 04:09:27;;;;;;;88.07;10.68;;;;;;;-11.95;79.61;100512.35;1696092;84;20995;-32
2021/01/16 04:11:55;;;;;;;27.93;7.17;;;;;;;-11.91;79.40;100518.05;1695971;84;21278;-33
2021/01/16 04:14:23;;;;;;;20.00;6.80;;;;;;;-11.89;79.46;100525.28;1666135;84;21050;-32
2021/01/16 04:16:51;;;;;;;15.28;6.53;;;;;;;-11.89;79.32;100526.53;1695996;84;20991;-32
2021/01/16 04:19:19;;;;;;;47.83;7.70;;;;;;;-11.87;79.18;100517.52;1695888;84;21042;-32
2021/01/16 04:21:47;;;;;;;79.95;9.03;;;;;;;-11.84;78.84;100524.38;1695878;83;21050;-31
2021/01/16 04:24:15;;;;;;;14.78;5.80;;;;;;;-11.82;78.77;100524.47;1695974;84;21906;-33
2021/01/16 04:26:42;;;;;;;53.83;8.38;;;;;;;-11.79;78.49;100527.19;1696010;84;20964;-32
2021/01/16 04:29:12;;;;;;;15.13;5.97;;;;;;;-11.79;78.40;100520.94;1695926;84;20999;-33
2021/01/16 04:31:40;;;;;;;30.82;7.22;;;;;;;-11.81;78.36;100517.47;1695894;83;21003;-32
2021/01/16 04:34:08;;;;;;;110.45;9.93;;;;;;;-11.81;78.34;100515.85;1730729;82;21443;-31
2021/01/16 04:36:35;;;;;;;51.53;8.60;;;;;;;-11.82;78.37;100517.86;1730779;83;21335;-31
2021/01/16 04:39:04;;;;;;;52.00;8.20;;;;;;;-11.82;78.34;100514.48;1735808;82;20900;-32
2021/01/16 04:41:35;;;;;;;33.65;7.78;;;;;;;-11.80;78.23;100515.45;1735978;82;21060;-32
2021/01/16 04:44:04;;;;;;;98.33;10.03;;;;;;;-11.80;78.08;100514.20;1735907;82;20916;-31
2021/01/16 04:46:32;;;;;;;56.48;8.83;;;;;;;-11.80;78.07;100519.20;1736007;82;20940;-33
2021/01/16 04:49:05;;;;;;;32.67;7.65;;;;;;;-11.80;78.02;100515.45;1735852;81;21367;-33
2021/01/16 04:51:43;;;;;;;18.87;6.70;;;;;;;-11.78;77.98;100522.31;1736045;81;20932;-32
2021/01/16 04:54:08;;;;;;;10.65;6.50;;;;;;;-11.77;77.95;100509.06;1735464;81;20959;-31
2021/01/16 04:56:37;;;;;;;22.32;7.10;;;;;;;-11.75;77.79;100512.91;1715179;82;21625;-32
2021/01/16 04:59:05;;;;;;;10.48;6.03;;;;;;;-11.76;77.63;100504.55;1665241;82;20936;-33
2021/01/16 05:01:33;;;;;;;11.80;6.60;;;;;;;-11.74;77.51;100510.92;1715407;82;21215;-32
2021/01/16 05:04:02;;;;;;;13.90;7.00;;;;;;;-11.75;77.59;100513.79;1735780;82;20995;-32
2021/01/16 05:06:30;;;;;;;17.77;7.62;;;;;;;-11.77;77.51;100512.81;1735932;82;21007;-32
2021/01/16 05:09:00;;;;;;;13.55;6.65;;;;;;;-11.78;77.43;100513.94;1735934;81;20991;-32
2021/01/16 05:11:45;;;;;;;17.00;6.35;;;;;;;-11.79;77.46;100523.44;1715349;82;21031;-32
2021/01/16 05:14:19;;;;;;;17.92;6.80;;;;;;;-11.81;77.48;100519.59;1735805;82;21207;-32
2021/01/16 05:16:58;;;;;;;24.35;10.50;;;;;;;-11.86;77.46;100513.01;1736036;82;21532;-32
2021/01/16 05:19:32;;;;;;;23.62;10.23;;;;;;;-11.91;77.52;100519.30;1735869;82;21016;-32
2021/01/16 05:22:00;;;;;;;23.02;9.85;;;;;;;-11.95;77.59;100517.34;1741724;81;21495;-32
2021/01/16 05:24:28;;;;;;;17.65;8.10;;;;;;;-11.99;77.67;100515.39;1744050;82;21019;-33
2021/01/16 05:27:06;;;;;;;18.37;8.83;;;;;;;-12.02;77.71;100514.80;1744113;82;21381;-32
2021/01/16 05:29:35;;;;;;;16.85;7.97;;;;;;;-12.04;77.80;100512.94;1744125;82;21419;-32
2021/01/16 05:32:05;;;;;;;15.08;8.08;;;;;;;-12.04;77.75;100512.94;1744117;82;20928;-33
2021/01/16 05:34:33;;;;;;;15.30;8.03;;;;;;;-12.03;77.76;100521.80;1744040;82;21064;-32
2021/01/16 05:37:02;;;;;;;14.70;8.10;;;;;;;-12.02;77.72;100513.56;1744062;82;20992;-32
2021/01/16 05:39:32;;;;;;;14.25;7.30;;;;;;;-11.98;77.71;100516.73;1744056;82;21176;-33
2021/01/16 05:42:06;;;;;;;19.17;8.65;;;;;;;-11.97;77.75;100516.37;1744048;82;21051;-32
2021/01/16 05:44:34;;;;;;;22.95;7.30;;;;;;;-11.93;77.78;100514.94;1744136;82;20911;-31
2021/01/16 05:47:03;;;;;;;14.40;7.65;;;;;;;-11.91;77.91;100519.30;1743990;81;21032;-32
2021/01/16 05:49:32;;;;;;;16.70;8.20;;;;;;;-11.88;77.95;100514.53;1669700;82;21078;-32
2021/01/16 05:52:08;;;;;;;22.22;8.70;;;;;;;-11.82;77.91;100519.47;1715312;82;21225;-32
2021/01/16 05:54:35;;;;;;;18.27;8.03;;;;;;;-11.81;77.91;100521.21;1715272;82;20923;-32
2021/01/16 05:57:08;;;;;;;16.65;8.60;;;;;;;-11.79;77.90;100521.82;1671897;82;20947;-33
2021/01/16 05:59:36;;;;;;;18.60;8.88;;;;;;;-11.79;77.98;100515.58;1691634;82;20924;-33
2021/01/16 06:02:04;;;;;;;22.20;8.00;;;;;;;-11.77;78.09;100513.17;1691597;82;20932;-33
2021/01/16 06:04:33;;;;;;;18.67;8.10;;;;;;;-11.76;78.17;100507.05;1691691;82;21223;-32
2021/01/16 06:07:06;;;;;;;12.88;7.47;;;;;;;-11.69;78.24;100514.62;1715600;82;21106;-32
2021/01/16 06:09:36;;;;;;;16.70;8.33;;;;;;;-11.62;78.25;100523.03;1744125;82;20876;-33
2021/01/16 06:12:06;;;;;;;23.62;8.50;;;;;;;-11.54;78.24;100526.09;1743956;82;20940;-32
2021/01/16 06:14:43;;;;;;;19.37;8.43;;;;;;;-11.46;78.25;100537.89;1744154;82;21015;-32
2021/01/16 06:17:14;;;;;;;20.15;8.83;;;;;;;-11.40;78.30;100535.42;1744056;82;22259;-33
2021/01/16 06:19:50;;;;;;;24.67;7.37;;;;;;;-11.30;78.35;100538.20;1743909;82;20952;-32
2021/01/16 06:22:18;;;;;;;15.43;8.10;;;;;;;-11.23;78.33;100541.16;1748049;81;20923;-33
2021/01/16 06:24:49;;;;;;;15.45;7.72;;;;;;;-11.16;78.39;100540.42;1749876;82;20880;-32
2021/01/16 06:27:25;;;;;;;16.48;7.90;;;;;;;-11.07;78.41;100535.59;1749859;82;20999;-32
2021/01/16 06:30:01;;;;;;;11.93;6.40;;;;;;;-11.02;78.38;100536.38;1749995;82;22167;-32
2021/01/16 06:32:29;;;;;;;15.95;6.62;;;;;;;-10.92;78.38;100542.05;1749721;82;20948;-32
2021/01/16 06:35:09;;;;;;;16.52;8.58;;;;;;;-10.84;78.22;100543.43;1749876;82;20993;-33
2021/01/16 06:37:50;;;;;;;18.15;8.80;;;;;;;-10.77;78.02;100546.83;1749920;82;21516;-32
2021/01/16 06:40:31;;;;;;;21.95;7.33;;;;;;;-10.69;78.05;100547.37;1749802;82;20979;-31
2021/01/16 06:42:59;;;;;;;21.05;7.70;;;;;;;-10.62;77.92;100549.91;1749958;82;22227;-32
2021/01/16 06:45:28;;;;;;;16.30;8.63;;;;;;;-10.54;77.84;100541.28;1749857;82;21074;-33
2021/01/16 06:48:01;;;;;;;23.15;8.23;;;;;;;-10.47;77.76;100537.57;1749902;82;21011;-32
2021/01/16 06:50:32;;;;;;;15.85;8.05;;;;;;;-10.43;77.57;100536.64;1749819;82;21022;-32
2021/01/16 06:53:01;;;;;;;22.07;9.40;;;;;;;-10.39;77.26;100542.30;1749860;82;21006;-31
2021/01/16 06:55:31;;;;;;;21.77;10.15;;;;;;;-10.35;77.19;100547.14;1749933;82;21348;-31
2021/01/16 06:58:18;;;;;;;13.22;7.12;;;;;;;-10.26;77.17;100549.37;1749825;82;20983;-30
2021/01/16 07:00:55;;;;;;;14.83;7.33;;;;;;;-10.20;77.04;100551.05;1749790;82;21030;-30
2021/01/16 07:03:26;;;;;;;13.28;7.53;;;;;;;-10.11;76.68;100554.53;1749794;82;20983;-32
2021/01/16 07:05:57;;;;;;;17.73;9.08;;;;;;;-10.05;76.50;100554.08;1749849;82;21549;-32
2021/01/16 07:08:25;;;;;;;18.92;6.55;;;;;;;-9.98;76.22;100557.46;1749957;82;21529;-31
2021/01/16 07:10:53;;;;;;;14.58;7.90;;;;;;;-9.92;75.51;100557.89;1698837;82;20944;-31
2021/01/16 07:13:20;;;;;;;18.20;9.45;;;;;;;-9.87;75.57;100545.27;1749807;82;21066;-30
2021/01/16 07:15:50;;;;;;;23.10;11.00;;;;;;;-9.77;75.73;100545.49;1749741;82;21557;-31
2021/01/16 07:18:18;;;;;;;18.80;8.68;;;;;;;-9.63;75.39;100541.73;1676247;82;20987;-32
2021/01/16 07:20:48;;;;;;;14.95;7.45;;;;;;;-9.50;75.09;100543.39;1699469;82;21022;-31
2021/01/16 07:23:17;;;;;;;15.40;7.47;;;;;;;-9.40;74.85;100538.21;1749716;81;20955;-31
2021/01/16 07:25:45;;;;;;;17.57;7.28;;;;;;;-9.28;74.36;100543.98;1722696;82;20928;-31
2021/01/16 07:28:14;;;;;;;13.38;7.05;;;;;;;-9.22;73.99;100539.75;1699224;82;20931;-32
2021/01/16 07:30:42;;;;;;;17.27;9.13;;;;;;;-9.15;73.67;100544.77;1749773;81;21027;-32
2021/01/16 07:33:10;;;;;;;19.35;9.68;;;;;;;-9.13;73.60;100550.75;1722535;82;21202;-32
2021/01/16 07:38:27;;;;;;;16.77;8.40;;;;;;;-8.96;73.42;100548.91;1777130;79;22074;-33
2021/01/16 07:40:57;;;;;;;27.75;12.65;;;;;;;-8.97;73.32;100552.20;1749777;82;20887;-33
2021/01/16 07:43:49;;;;;;;25.02;9.48;;;;;;;-8.94;73.44;100567.81;1749662;82;21384;-33
2021/01/16 07:46:21;;;;;;;20.17;9.63;;;;;;;-8.92;73.53;100576.30;1749704;82;20935;-32
2021/01/16 07:48:58;;;;;;;20.77;10.53;;;;;;;-8.92;73.62;100577.96;1749712;82;20971;-30
2021/01/16 07:51:36;;;;;;;18.50;9.10;;;;;;;-8.93;73.62;100574.97;1749777;81;20924;-32
2021/01/16 07:54:11;;;;;;;14.85;7.80;;;;;;;-8.91;73.57;100583.46;1749757;81;21463;-32
2021/01/16 07:56:44;;;;;;;19.87;8.93;;;;;;;-8.92;73.38;100577.96;1749901;82;21379;-33
2021/01/16 07:59:20;;;;;;;19.50;8.68;;;;;;;-8.89;73.48;100595.31;1749644;82;21003;-32
2021/01/16 08:02:27;;;;;;;17.05;8.68;;;;;;;-8.92;73.49;100594.27;1749707;82;20916;-33
2021/01/16 08:05:13;;;;;;;16.62;8.28;;;;;;;-8.87;73.59;100599.19;1749767;82;20876;-32
2021/01/16 08:08:16;;;;;;;19.35;9.28;;;;;;;-8.83;73.12;100598.59;1749776;82;20979;-32
2021/01/16 08:10:45;;;;;;;16.93;8.70;;;;;;;-8.79;72.82;100598.02;1748660;82;22175;-32
2021/01/16 08:13:14;;;;;;;20.23;9.93;;;;;;;-8.79;72.53;100594.25;1670297;82;20998;-31
2021/01/16 08:15:42;;;;;;;17.75;9.35;;;;;;;-8.76;72.80;100598.20;1697040;82;20999;-31
2021/01/16 08:18:20;;;;;;;16.75;8.83;;;;;;;-8.73;72.67;100607.57;1749620;81;21030;-32
2021/01/16 08:20:49;;;;;;;19.45;9.35;;;;;;;-8.66;72.50;100609.30;1749886;82;21014;-33
2021/01/16 08:23:25;;;;;;;17.65;8.50;;;;;;;-8.64;72.39;100601.00;1749751;82;21434;-32
2021/01/16 08:25:53;;;;;;;22.20;9.78;;;;;;;-8.61;72.45;100597.02;1749740;82;21066;-33
2021/01/16 08:28:25;;;;;;;19.45;8.83;;;;;;;-8.48;72.59;100606.13;1741932;81;61943;-32
2021/01/16 08:30:53;;;;;;;17.73;9.03;;;;;;;-8.44;72.86;100606.83;1649506;87;20997;-32
2021/01/16 08:33:33;;;;;;;25.23;9.15;;;;;;;-8.37;73.12;100593.85;1649610;87;21598;-31
2021/01/16 08:36:18;;;;;;;19.37;9.10;;;;;;;-8.25;73.02;100600.38;1649488;87;21454;-32
2021/01/16 08:38:47;;;;;;;15.30;8.73;;;;;;;-8.29;72.70;100594.32;1642824;87;21428;-31
2021/01/16 08:41:24;;;;;;;17.15;9.15;;;;;;;-8.22;72.86;100598.92;1642917;87;20969;-32
2021/01/16 08:43:57;;;;;;;14.10;8.40;;;;;;;-8.22;72.94;100596.78;1642849;87;20957;-32
2021/01/16 08:46:34;;;;;;;23.90;9.95;;;;;;;-8.16;72.93;100598.80;1643019;87;20939;-31
2021/01/16 08:49:15;;;;;;;22.62;9.58;;;;;;;-8.03;72.38;100600.03;1642599;87;22328;-31
2021/01/16 08:51:51;;;;;;;25.12;9.98;;;;;;;-8.06;72.19;100591.42;1642484;87;21145;-32
2021/01/16 08:54:23;;;;;;;16.97;8.98;;;;;;;-8.06;72.18;100587.66;1621790;87;20929;-31
2021/01/16 08:57:07;;;;;;;19.12;9.70;;;;;;;-8.03;72.30;100578.67;1642394;87;21032;-31
2021/01/16 08:59:35;;;;;;;17.17;8.08;;;;;;;-7.89;72.30;100588.27;1642463;87;20941;-31
2021/01/16 09:02:12;;;;;;;18.92;9.75;;;;;;;-7.89;72.18;100587.39;1642457;87;22661;-32
2021/01/16 09:04:42;;;;;;;14.78;8.53;;;;;;;-7.88;72.00;100586.23;1642441;87;21369;-32
2021/01/16 09:07:21;;;;;;;16.02;8.13;;;;;;;-7.84;71.96;100585.63;1642499;87;21543;-33
2021/01/16 09:10:04;;;;;;;26.12;9.38;;;;;;;-7.77;71.59;100583.46;1642492;87;21536;-32
2021/01/16 09:12:40;;;;;;;18.95;9.05;;;;;;;-7.81;71.61;100575.74;1642421;87;20996;-31
2021/01/16 09:15:30;;;;;;;17.00;9.28;;;;;;;-7.84;71.62;100580.97;1642471;87;22144;-31
2021/01/16 09:18:15;;;;;;;17.40;9.63;;;;;;;-7.79;71.70;100582.98;1642210;87;21036;-31
2021/01/16 09:20:55;;;;;;;16.65;8.95;;;;;;;-7.72;71.40;100575.78;1642462;87;21013;-31
2021/01/16 09:23:27;;;;;;;17.60;9.15;;;;;;;-7.65;71.66;100581.67;1642337;87;20953;-31
2021/01/16 09:26:16;;;;;;;18.60;8.08;;;;;;;-7.51;71.20;100573.24;1642483;87;21148;-32
2021/01/16 09:29:04;;;;;;;14.70;7.50;;;;;;;-7.40;70.64;100570.48;1642360;87;21390;-31
2021/01/16 09:31:39;;;;;;;14.58;8.75;;;;;;;-7.23;70.04;100572.27;1642413;87;21008;-32
2021/01/16 09:34:17;;;;;;;29.82;8.35;;;;;;;-7.06;69.55;100568.56;1621942;87;20966;-32
2021/01/16 09:36:53;;;;;;;14.87;8.28;;;;;;;-7.11;68.69;100564.94;1642601;86;20905;-30
2021/01/16 09:39:28;;;;;;;;;;;;;;;-7.24;69.03;100579.34;1638688;86;21033;-31
2021/01/16 09:41:58;;;;;;;16.55;8.33;;;;;;;-7.25;69.25;100576.77;1636437;86;21162;-32
2021/01/16 09:44:52;;;;;;;42.70;11.70;;;;;;;-7.33;69.43;100578.84;1627325;88;20966;-32
2021/01/16 09:47:31;;;;;;;23.87;8.75;;;;;;;-7.25;69.51;100574.24;1614651;88;21046;-32
2021/01/16 09:50:07;;;;;;;14.50;8.03;;;;;;;-7.17;70.15;100578.45;1614709;88;21017;-33
2021/01/16 09:52:35;;;;;;;24.07;9.73;;;;;;;-7.21;69.96;100583.28;1614914;88;20963;-32
2021/01/16 09:55:04;;;;;;;19.73;9.53;;;;;;;-7.08;69.76;100570.14;1614685;88;21306;-32
2021/01/16 09:57:38;;;;;;;17.77;9.25;;;;;;;-7.22;70.38;100584.48;1610623;88;21020;-33
2021/01/16 10:00:15;;;;;;;21.77;8.93;;;;;;;-7.24;70.73;100574.31;1627208;88;20957;-32
2021/01/16 10:02:47;;;;;;;17.77;8.78;;;;;;;-7.21;70.69;100583.69;1627194;88;20965;-34
2021/01/16 10:05:18;;;;;;;17.50;9.00;;;;;;;-7.15;70.98;100578.14;1627243;88;21061;-33
2021/01/16 10:07:45;;;;;;;18.52;9.18;;;;;;;-7.10;70.97;100581.77;1626908;88;22302;-33
2021/01/16 10:10:17;;;;;;;17.75;9.58;;;;;;;-7.15;70.80;100583.17;1588519;88;21049;-31
2021/01/16 10:12:48;;;;;;;18.52;8.60;;;;;;;-7.17;70.76;100578.45;1627299;88;20966;-31
2021/01/16 10:15:19;;;;;;;21.73;9.65;;;;;;;-7.24;70.46;100578.09;1627120;88;21508;-32
2021/01/16 10:17:51;;;;;;;15.95;9.15;;;;;;;-7.21;70.46;100566.92;1627334;88;22282;-32
2021/01/16 10:20:19;;;;;;;21.25;10.93;;;;;;;-7.13;70.51;100562.73;1626769;87;21222;-32
2021/01/16 10:22:54;;;;;;;17.77;8.90;;;;;;;-7.08;70.40;100555.03;1627213;88;20977;-32
2021/01/16 10:25:21;;;;;;;21.65;9.63;;;;;;;-6.86;70.91;100558.72;1611010;88;21056;-33
2021/01/16 10:27:53;;;;;;;16.97;8.98;;;;;;;-6.86;69.10;100557.46;1627281;88;21051;-32
2021/01/16 10:30:25;;;;;;;16.60;8.90;;;;;;;-6.97;69.93;100555.21;1627276;88;21109;-31
2021/01/16 10:32:52;;;;;;;19.75;9.33;;;;;;;-6.98;69.95;100553.48;1627280;88;22079;-31
2021/01/16 10:35:24;;;;;;;16.00;8.75;;;;;;;-6.88;69.89;100551.48;1627160;88;21100;-32
2021/01/16 10:37:56;;;;;;;21.73;9.10;;;;;;;-6.91;69.63;100550.06;1622614;88;21052;-31
2021/01/16 10:40:24;;;;;;;15.98;9.43;;;;;;;-6.93;69.57;100546.19;1612634;89;21008;-33
2021/01/16 10:42:54;;;;;;;17.42;8.88;;;;;;;-7.01;69.82;100546.17;1612784;89;21586;-33
2021/01/16 10:45:24;;;;;;;27.95;10.45;;;;;;;-6.85;69.87;100541.57;1612570;89;21413;-33
2021/01/16 10:47:52;;;;;;;21.20;9.25;;;;;;;-6.79;69.79;100545.66;1612490;89;21031;-33
2021/01/16 10:50:29;;;;;;;23.30;10.45;;;;;;;-6.86;69.55;100548.65;1612537;89;21011;-33
2021/01/16 10:53:02;;;;;;;23.25;9.63;;;;;;;-6.87;69.56;100543.14;1612613;88;21066;-33
2021/01/16 10:55:55;;;;;;;15.43;8.85;;;;;;;-6.79;69.38;100549.06;1612669;89;21025;-33
2021/01/16 10:58:25;;;;;;;20.55;9.53;;;;;;;-6.88;69.04;100546.44;1560563;91;22702;-33
2021/01/16 11:01:00;;;;;;;17.40;9.70;;;;;;;-6.98;69.14;100545.92;1626993;87;20962;-33
2021/01/16 11:03:29;;;;;;;21.67;9.93;;;;;;;-6.97;69.25;100537.59;1637353;87;21030;-31
2021/01/16 11:06:07;;;;;;;19.60;9.13;;;;;;;-6.81;69.21;100532.13;1604804;89;21087;-31
2021/01/16 11:08:39;;;;;;;26.90;10.65;;;;;;;-6.62;68.44;100540.25;1637154;87;20974;-30
2021/01/16 11:11:30;;;;;;;23.00;10.72;;;;;;;-6.51;68.07;100538.30;1637191;87;21225;-34
2021/01/16 11:13:59;;;;;;;20.95;10.63;;;;;;;-6.67;68.19;100542.55;1637245;87;21717;-39
2021/01/16 11:16:27;;;;;;;19.30;10.32;;;;;;;-6.79;68.36;100541.89;1637135;87;20974;-35
2021/01/16 11:18:55;;;;;;;23.10;10.90;;;;;;;-6.84;68.45;100538.27;1604675;89;21055;-32
2021/01/16 11:21:55;;;;;;;18.82;10.15;;;;;;;-6.96;68.83;100539.33;1606582;87;21021;-31
2021/01/16 11:25:08;;;;;;;36.10;10.58;;;;;;;-6.98;69.13;100547.59;1637217;87;22375;-32
2021/01/16 11:27:36;;;;;;;23.50;10.35;;;;;;;-7.00;69.34;100547.50;1637134;87;20975;-32
2021/01/16 11:30:17;;;;;;;21.57;10.10;;;;;;;-7.00;69.18;100542.88;1604747;89;21011;-33
2021/01/16 11:32:45;;;;;;;23.00;10.32;;;;;;;-7.00;69.30;100542.88;1630644;87;20975;-32
2021/01/16 11:35:14;;;;;;;18.82;9.73;;;;;;;-6.83;69.79;100527.41;1624795;87;20995;-31
2021/01/16 11:37:52;;;;;;;17.07;9.95;;;;;;;-6.72;69.22;100530.09;1604932;89;21399;-34
2021/01/16 11:40:27;;;;;;;18.05;9.95;;;;;;;-6.78;69.07;100538.58;1609639;89;21616;-32